sensor_id;sensor_type;location;lat;lon;timestamp;noise_LAeq;noise_LA_min;noise_LA_max;noise_LA01;noise_LA95
59284;Laerm;45056;47.602;9.886;2023-12-20T00:00:41;44.24;35.86;57.09;;
59284;Laerm;45056;47.602;9.886;2023-12-20T00:03:10;39.06;35.66;41.89;;
59284;Laerm;45056;47.602;9.886;2023-12-20T00:05:38;39.67;35.94;48.07;;
59284;Laerm;45056;47.602;9.886;2023-12-20T00:08:09;42.04;36.45;52.53;;
59284;Laerm;45056;47.602;9.886;2023-12-20T00:10:37;40.86;35.66;53.92;;
59284;Laerm;45056;47.602;9.886;2023-12-20T00:13:05;48.05;35.66;65.38;;
59284;Laerm;45056;47.602;9.886;2023-12-20T00:15:34;39.63;35.36;56.21;;
59284;Laerm;45056;47.602;9.886;2023-12-20T00:18:03;38.51;35.04;41.06;;
59284;Laerm;45056;47.602;9.886;2023-12-20T00:20:31;38.83;35.04;42.16;;
59284;Laerm;45056;47.602;9.886;2023-12-20T00:22:59;39.19;36.20;42.09;;
59284;Laerm;45056;47.602;9.886;2023-12-20T00:25:29;38.90;35.36;43.34;;
59284;Laerm;45056;47.602;9.886;2023-12-20T00:27:57;39.66;35.66;42.22;;
59284;Laerm;45056;47.602;9.886;2023-12-20T00:30:25;40.58;36.20;54.76;;
59284;Laerm;45056;47.602;9.886;2023-12-20T00:32:53;38.92;35.66;41.46;;
59284;Laerm;45056;47.602;9.886;2023-12-20T00:35:21;39.26;35.04;43.09;;
59284;Laerm;45056;47.602;9.886;2023-12-20T00:37:50;38.81;35.36;44.23;;
59284;Laerm;45056;47.602;9.886;2023-12-20T00:40:18;38.74;34.69;42.41;;
59284;Laerm;45056;47.602;9.886;2023-12-20T00:42:48;38.79;35.04;44.35;;
59284;Laerm;45056;47.602;9.886;2023-12-20T00:45:16;40.45;35.66;53.21;;
59284;Laerm;45056;47.602;9.886;2023-12-20T00:47:45;38.88;35.31;42.71;;
59284;Laerm;45056;47.602;9.886;2023-12-20T00:50:13;38.71;35.36;43.49;;
59284;Laerm;45056;47.602;9.886;2023-12-20T00:52:41;40.13;35.94;48.23;;
59284;Laerm;45056;47.602;9.886;2023-12-20T00:55:09;39.91;35.94;43.90;;
59284;Laerm;45056;47.602;9.886;2023-12-20T00:57:37;40.22;36.45;45.27;;
59284;Laerm;45056;47.602;9.886;2023-12-20T01:00:07;41.54;34.69;54.11;;
59284;Laerm;45056;47.602;9.886;2023-12-20T01:02:36;39.90;35.04;54.58;;
59284;Laerm;45056;47.602;9.886;2023-12-20T01:05:05;39.74;35.04;50.10;;
59284;Laerm;45056;47.602;9.886;2023-12-20T01:07:35;39.31;35.94;42.09;;
59284;Laerm;45056;47.602;9.886;2023-12-20T01:10:04;39.77;35.94;44.27;;
59284;Laerm;45056;47.602;9.886;2023-12-20T01:12:32;38.93;35.36;42.22;;
59284;Laerm;45056;47.602;9.886;2023-12-20T01:15:00;40.01;36.69;46.18;;
59284;Laerm;45056;47.602;9.886;2023-12-20T01:17:30;40.99;36.45;57.90;;
59284;Laerm;45056;47.602;9.886;2023-12-20T01:19:58;40.37;36.20;49.56;;
59284;Laerm;45056;47.602;9.886;2023-12-20T01:22:26;40.34;35.94;43.39;;
59284;Laerm;45056;47.602;9.886;2023-12-20T01:24:54;40.07;36.91;42.65;;
59284;Laerm;45056;47.602;9.886;2023-12-20T01:27:22;40.90;36.20;45.97;;
59284;Laerm;45056;47.602;9.886;2023-12-20T01:29:50;41.43;36.45;54.02;;
59284;Laerm;45056;47.602;9.886;2023-12-20T01:32:18;40.44;35.36;54.71;;
59284;Laerm;45056;47.602;9.886;2023-12-20T01:34:48;40.57;34.69;54.46;;
59284;Laerm;45056;47.602;9.886;2023-12-20T01:37:16;38.52;35.36;42.22;;
59284;Laerm;45056;47.602;9.886;2023-12-20T01:39:44;38.49;35.04;41.06;;
59284;Laerm;45056;47.602;9.886;2023-12-20T01:42:12;38.31;34.69;40.62;;
59284;Laerm;45056;47.602;9.886;2023-12-20T01:44:40;38.75;35.04;43.80;;
59284;Laerm;45056;47.602;9.886;2023-12-20T01:47:09;41.26;35.94;55.42;;
59284;Laerm;45056;47.602;9.886;2023-12-20T01:49:37;41.00;35.59;54.41;;
59284;Laerm;45056;47.602;9.886;2023-12-20T01:52:08;39.77;35.36;42.47;;
59284;Laerm;45056;47.602;9.886;2023-12-20T01:54:38;39.32;35.04;42.16;;
59284;Laerm;45056;47.602;9.886;2023-12-20T01:57:08;39.27;35.04;43.39;;
59284;Laerm;45056;47.602;9.886;2023-12-20T01:59:39;39.13;34.69;42.59;;
59284;Laerm;45056;47.602;9.886;2023-12-20T02:02:08;44.15;33.44;58.04;;
59284;Laerm;45056;47.602;9.886;2023-12-20T02:04:36;39.15;33.90;45.48;;
59284;Laerm;45056;47.602;9.886;2023-12-20T02:07:14;38.68;34.69;42.03;;
59284;Laerm;45056;47.602;9.886;2023-12-20T02:10:07;39.87;35.04;44.54;;
59284;Laerm;45056;47.602;9.886;2023-12-20T02:12:35;40.39;34.31;53.14;;
59284;Laerm;45056;47.602;9.886;2023-12-20T02:15:04;40.48;35.59;54.70;;
59284;Laerm;45056;47.602;9.886;2023-12-20T02:17:33;41.89;36.69;51.66;;
59284;Laerm;45056;47.602;9.886;2023-12-20T02:20:02;39.83;36.45;42.24;;
59284;Laerm;45056;47.602;9.886;2023-12-20T02:22:31;42.38;35.94;57.08;;
59284;Laerm;45056;47.602;9.886;2023-12-20T02:24:59;40.22;35.36;44.39;;
59284;Laerm;45056;47.602;9.886;2023-12-20T02:27:28;40.69;36.20;52.96;;
59284;Laerm;45056;47.602;9.886;2023-12-20T02:29:56;42.02;37.12;55.83;;
59284;Laerm;45056;47.602;9.886;2023-12-20T02:32:25;40.82;35.66;57.38;;
59284;Laerm;45056;47.602;9.886;2023-12-20T02:34:54;39.55;35.66;45.69;;
59284;Laerm;45056;47.602;9.886;2023-12-20T02:37:23;39.70;35.01;45.60;;
59284;Laerm;45056;47.602;9.886;2023-12-20T02:39:52;39.42;35.94;45.14;;
59284;Laerm;45056;47.602;9.886;2023-12-20T02:42:20;43.35;35.66;58.90;;
59284;Laerm;45056;47.602;9.886;2023-12-20T02:44:48;41.15;36.20;54.87;;
59284;Laerm;45056;47.602;9.886;2023-12-20T02:47:16;41.13;35.04;55.15;;
59284;Laerm;45056;47.602;9.886;2023-12-20T02:49:44;38.51;35.04;42.47;;
59284;Laerm;45056;47.602;9.886;2023-12-20T02:52:12;40.71;35.66;48.08;;
59284;Laerm;45056;47.602;9.886;2023-12-20T02:54:40;40.90;34.69;55.47;;
59284;Laerm;45056;47.602;9.886;2023-12-20T02:57:10;38.86;35.04;42.36;;
59284;Laerm;45056;47.602;9.886;2023-12-20T02:59:38;38.49;34.69;41.68;;
59284;Laerm;45056;47.602;9.886;2023-12-20T03:02:06;45.17;35.86;59.69;;
59284;Laerm;45056;47.602;9.886;2023-12-20T03:04:34;40.39;35.66;52.51;;
59284;Laerm;45056;47.602;9.886;2023-12-20T03:07:02;42.67;36.45;56.55;;
59284;Laerm;45056;47.602;9.886;2023-12-20T03:09:31;40.96;36.45;52.38;;
59284;Laerm;45056;47.602;9.886;2023-12-20T03:11:59;38.83;35.04;42.35;;
59284;Laerm;45056;47.602;9.886;2023-12-20T03:14:28;39.95;35.04;42.65;;
59284;Laerm;45056;47.602;9.886;2023-12-20T03:16:56;41.40;36.45;54.75;;
59284;Laerm;45056;47.602;9.886;2023-12-20T03:19:24;40.06;35.04;47.59;;
59284;Laerm;45056;47.602;9.886;2023-12-20T03:21:52;39.59;35.66;44.47;;
59284;Laerm;45056;47.602;9.886;2023-12-20T03:24:21;40.50;35.36;47.85;;
59284;Laerm;45056;47.602;9.886;2023-12-20T03:26:49;42.36;34.31;55.64;;
59284;Laerm;45056;47.602;9.886;2023-12-20T03:31:46;41.99;35.36;56.25;;
59284;Laerm;45056;47.602;9.886;2023-12-20T03:34:14;40.71;36.45;50.08;;
59284;Laerm;45056;47.602;9.886;2023-12-20T03:36:42;40.18;36.20;46.71;;
59284;Laerm;45056;47.602;9.886;2023-12-20T03:39:10;43.69;37.12;54.31;;
59284;Laerm;45056;47.602;9.886;2023-12-20T03:41:38;42.70;38.21;52.99;;
59284;Laerm;45056;47.602;9.886;2023-12-20T03:44:06;41.36;37.88;47.08;;
59284;Laerm;45056;47.602;9.886;2023-12-20T03:46:34;43.72;37.12;54.65;;
59284;Laerm;45056;47.602;9.886;2023-12-20T03:49:03;43.05;36.91;55.66;;
59284;Laerm;45056;47.602;9.886;2023-12-20T03:51:32;47.67;37.88;63.30;;
59284;Laerm;45056;47.602;9.886;2023-12-20T03:54:00;43.21;36.69;56.09;;
59284;Laerm;45056;47.602;9.886;2023-12-20T03:56:28;40.46;35.94;48.73;;
59284;Laerm;45056;47.602;9.886;2023-12-20T03:58:56;43.37;36.91;57.67;;
59284;Laerm;45056;47.602;9.886;2023-12-20T04:01:24;44.96;37.52;56.68;;
59284;Laerm;45056;47.602;9.886;2023-12-20T04:03:52;44.46;37.12;57.15;;
59284;Laerm;45056;47.602;9.886;2023-12-20T04:06:22;44.89;35.66;59.70;;
59284;Laerm;45056;47.602;9.886;2023-12-20T04:08:50;40.68;37.12;43.29;;
59284;Laerm;45056;47.602;9.886;2023-12-20T04:11:18;42.46;37.70;52.04;;
59284;Laerm;45056;47.602;9.886;2023-12-20T04:13:46;44.93;37.88;55.55;;
59284;Laerm;45056;47.602;9.886;2023-12-20T04:16:14;43.66;37.52;55.83;;
59284;Laerm;45056;47.602;9.886;2023-12-20T04:18:42;42.09;37.70;52.41;;
59284;Laerm;45056;47.602;9.886;2023-12-20T04:21:10;43.05;38.81;52.86;;
59284;Laerm;45056;47.602;9.886;2023-12-20T04:23:40;46.74;38.52;60.35;;
59284;Laerm;45056;47.602;9.886;2023-12-20T04:26:08;46.15;38.67;60.97;;
59284;Laerm;45056;47.602;9.886;2023-12-20T04:28:36;47.21;38.95;62.75;;
59284;Laerm;45056;47.602;9.886;2023-12-20T04:31:04;46.02;38.81;59.21;;
59284;Laerm;45056;47.602;9.886;2023-12-20T04:33:32;43.42;38.52;50.92;;
59284;Laerm;45056;47.602;9.886;2023-12-20T04:36:00;49.85;39.21;64.89;;
59284;Laerm;45056;47.602;9.886;2023-12-20T04:38:28;46.56;40.03;59.13;;
59284;Laerm;45056;47.602;9.886;2023-12-20T04:40:57;48.73;40.43;60.84;;
59284;Laerm;45056;47.602;9.886;2023-12-20T04:43:25;47.49;40.80;62.11;;
59284;Laerm;45056;47.602;9.886;2023-12-20T04:45:53;49.31;41.89;60.00;;
59284;Laerm;45056;47.602;9.886;2023-12-20T04:48:21;46.89;39.70;60.21;;
59284;Laerm;45056;47.602;9.886;2023-12-20T04:50:49;48.62;40.13;63.00;;
59284;Laerm;45056;47.602;9.886;2023-12-20T04:53:17;46.99;41.38;60.61;;
59284;Laerm;45056;47.602;9.886;2023-12-20T04:55:45;49.37;41.30;60.27;;
59284;Laerm;45056;47.602;9.886;2023-12-20T04:58:15;46.09;40.23;58.24;;
59284;Laerm;45056;47.602;9.886;2023-12-20T05:00:43;47.42;40.13;59.23;;
59284;Laerm;45056;47.602;9.886;2023-12-20T05:03:11;55.29;40.88;70.12;;
59284;Laerm;45056;47.602;9.886;2023-12-20T05:05:39;51.46;40.13;67.91;;
59284;Laerm;45056;47.602;9.886;2023-12-20T05:08:07;46.43;40.13;57.24;;
59284;Laerm;45056;47.602;9.886;2023-12-20T05:10:35;47.47;40.89;60.74;;
59284;Laerm;45056;47.602;9.886;2023-12-20T05:13:03;46.49;40.53;59.00;;
59284;Laerm;45056;47.602;9.886;2023-12-20T05:15:33;49.69;42.41;61.73;;
59284;Laerm;45056;47.602;9.886;2023-12-20T05:18:01;49.62;42.65;68.87;;
59284;Laerm;45056;47.602;9.886;2023-12-20T05:20:29;48.95;42.09;62.04;;
59284;Laerm;45056;47.602;9.886;2023-12-20T05:22:57;50.25;43.24;64.68;;
59284;Laerm;45056;47.602;9.886;2023-12-20T05:25:25;51.33;43.72;63.35;;
59284;Laerm;45056;47.602;9.886;2023-12-20T05:27:54;50.17;43.29;62.76;;
59284;Laerm;45056;47.602;9.886;2023-12-20T05:30:22;50.97;43.34;64.08;;
59284;Laerm;45056;47.602;9.886;2023-12-20T05:32:52;50.78;43.39;61.79;;
59284;Laerm;45056;47.602;9.886;2023-12-20T05:35:20;60.09;42.47;91.94;;
59284;Laerm;45056;47.602;9.886;2023-12-20T05:37:49;52.66;43.94;68.98;;
59284;Laerm;45056;47.602;9.886;2023-12-20T05:40:17;52.27;44.73;66.66;;
59284;Laerm;45056;47.602;9.886;2023-12-20T05:42:45;51.38;43.99;62.99;;
59284;Laerm;45056;47.602;9.886;2023-12-20T05:45:15;52.41;44.58;63.57;;
59284;Laerm;45056;47.602;9.886;2023-12-20T05:47:43;54.04;45.94;67.77;;
59284;Laerm;45056;47.602;9.886;2023-12-20T05:50:12;52.48;44.97;64.34;;
59284;Laerm;45056;47.602;9.886;2023-12-20T05:52:40;52.81;44.83;64.22;;
59284;Laerm;45056;47.602;9.886;2023-12-20T05:55:08;54.53;45.11;66.84;;
59284;Laerm;45056;47.602;9.886;2023-12-20T05:57:36;53.03;45.45;64.08;;
59284;Laerm;45056;47.602;9.886;2023-12-20T06:00:06;53.81;44.58;66.96;;
59284;Laerm;45056;47.602;9.886;2023-12-20T06:02:34;54.51;44.35;66.75;;
59284;Laerm;45056;47.602;9.886;2023-12-20T06:05:05;53.37;45.36;64.31;;
59284;Laerm;45056;47.602;9.886;2023-12-20T06:07:34;51.77;45.04;62.92;;
59284;Laerm;45056;47.602;9.886;2023-12-20T06:10:03;53.15;44.43;62.74;;
59284;Laerm;45056;47.602;9.886;2023-12-20T06:12:32;54.87;46.64;65.41;;
59284;Laerm;45056;47.602;9.886;2023-12-20T06:15:03;54.62;47.44;64.48;;
59284;Laerm;45056;47.602;9.886;2023-12-20T06:17:32;53.20;45.72;63.34;;
59284;Laerm;45056;47.602;9.886;2023-12-20T06:20:01;54.55;46.15;64.31;;
59284;Laerm;45056;47.602;9.886;2023-12-20T06:22:36;54.03;47.18;62.53;;
59284;Laerm;45056;47.602;9.886;2023-12-20T06:25:05;54.09;45.89;65.30;;
59284;Laerm;45056;47.602;9.886;2023-12-20T06:27:33;53.31;45.66;65.58;;
59284;Laerm;45056;47.602;9.886;2023-12-20T06:30:01;54.46;46.95;66.36;;
59284;Laerm;45056;47.602;9.886;2023-12-20T06:32:29;51.46;44.35;63.93;;
59284;Laerm;45056;47.602;9.886;2023-12-20T06:34:57;52.55;44.58;62.11;;
59284;Laerm;45056;47.602;9.886;2023-12-20T06:37:25;53.49;46.23;64.72;;
59284;Laerm;45056;47.602;9.886;2023-12-20T06:39:55;53.25;45.57;61.80;;
59284;Laerm;45056;47.602;9.886;2023-12-20T06:42:23;54.17;47.41;63.29;;
59284;Laerm;45056;47.602;9.886;2023-12-20T06:44:51;53.57;46.05;63.23;;
59284;Laerm;45056;47.602;9.886;2023-12-20T06:47:19;53.35;45.45;65.14;;
59284;Laerm;45056;47.602;9.886;2023-12-20T06:49:47;53.38;44.83;64.41;;
59284;Laerm;45056;47.602;9.886;2023-12-20T06:52:15;52.07;45.20;61.51;;
59284;Laerm;45056;47.602;9.886;2023-12-20T06:54:44;52.24;45.39;60.15;;
59284;Laerm;45056;47.602;9.886;2023-12-20T06:57:13;51.44;43.63;59.95;;
59284;Laerm;45056;47.602;9.886;2023-12-20T06:59:41;51.27;43.29;62.17;;
59284;Laerm;45056;47.602;9.886;2023-12-20T07:02:10;51.31;43.86;60.89;;
59284;Laerm;45056;47.602;9.886;2023-12-20T07:04:40;50.21;43.19;62.11;;
59284;Laerm;45056;47.602;9.886;2023-12-20T07:07:08;52.05;44.35;60.62;;
59284;Laerm;45056;47.602;9.886;2023-12-20T07:09:36;51.64;43.29;60.81;;
59284;Laerm;45056;47.602;9.886;2023-12-20T07:12:05;50.93;43.77;59.63;;
59284;Laerm;45056;47.602;9.886;2023-12-20T07:14:35;51.23;42.71;59.82;;
59284;Laerm;45056;47.602;9.886;2023-12-20T07:17:03;50.00;41.38;58.72;;
59284;Laerm;45056;47.602;9.886;2023-12-20T07:19:31;50.64;43.05;63.54;;
59284;Laerm;45056;47.602;9.886;2023-12-20T07:22:00;53.59;42.98;71.78;;
59284;Laerm;45056;47.602;9.886;2023-12-20T07:24:30;50.09;42.53;61.77;;
59284;Laerm;45056;47.602;9.886;2023-12-20T07:26:59;50.34;42.03;60.22;;
59284;Laerm;45056;47.602;9.886;2023-12-20T07:29:28;52.12;43.24;63.04;;
59284;Laerm;45056;47.602;9.886;2023-12-20T07:31:57;51.71;42.22;63.95;;
59284;Laerm;45056;47.602;9.886;2023-12-20T07:34:25;51.68;43.54;60.61;;
59284;Laerm;45056;47.602;9.886;2023-12-20T07:36:53;50.90;43.81;60.38;;
59284;Laerm;45056;47.602;9.886;2023-12-20T07:39:21;50.30;44.23;59.95;;
59284;Laerm;45056;47.602;9.886;2023-12-20T07:41:49;49.81;43.04;59.33;;
59284;Laerm;45056;47.602;9.886;2023-12-20T07:44:17;51.76;44.76;60.06;;
59284;Laerm;45056;47.602;9.886;2023-12-20T07:46:45;50.95;43.77;60.98;;
59284;Laerm;45056;47.602;9.886;2023-12-20T07:49:16;52.09;44.65;63.96;;
59284;Laerm;45056;47.602;9.886;2023-12-20T07:51:44;50.73;43.04;60.62;;
59284;Laerm;45056;47.602;9.886;2023-12-20T07:54:12;52.88;45.42;60.84;;
59284;Laerm;45056;47.602;9.886;2023-12-20T07:56:40;53.50;44.69;66.08;;
59284;Laerm;45056;47.602;9.886;2023-12-20T07:59:08;50.01;42.88;58.46;;
59284;Laerm;45056;47.602;9.886;2023-12-20T08:01:37;51.30;42.59;59.92;;
59284;Laerm;45056;47.602;9.886;2023-12-20T08:04:05;51.81;43.90;61.90;;
59284;Laerm;45056;47.602;9.886;2023-12-20T08:06:34;50.79;43.58;59.90;;
59284;Laerm;45056;47.602;9.886;2023-12-20T08:09:02;52.40;42.71;65.06;;
59284;Laerm;45056;47.602;9.886;2023-12-20T08:11:30;51.09;42.65;60.82;;
59284;Laerm;45056;47.602;9.886;2023-12-20T08:13:58;52.38;44.19;65.95;;
59284;Laerm;45056;47.602;9.886;2023-12-20T08:16:27;52.29;43.90;61.07;;
59284;Laerm;45056;47.602;9.886;2023-12-20T08:18:55;51.23;43.14;59.45;;
59284;Laerm;45056;47.602;9.886;2023-12-20T08:21:23;50.39;43.44;57.78;;
59284;Laerm;45056;47.602;9.886;2023-12-20T08:23:52;50.98;43.68;59.15;;
59284;Laerm;45056;47.602;9.886;2023-12-20T08:26:21;50.77;43.29;59.82;;
59284;Laerm;45056;47.602;9.886;2023-12-20T08:28:50;50.10;42.82;59.15;;
59284;Laerm;45056;47.602;9.886;2023-12-20T08:31:19;51.13;43.44;58.83;;
59284;Laerm;45056;47.602;9.886;2023-12-20T08:33:49;51.78;44.27;59.26;;
59284;Laerm;45056;47.602;9.886;2023-12-20T08:36:17;50.64;43.14;60.32;;
59284;Laerm;45056;47.602;9.886;2023-12-20T08:38:45;50.82;44.83;58.77;;
59284;Laerm;45056;47.602;9.886;2023-12-20T08:41:16;49.41;42.88;58.43;;
59284;Laerm;45056;47.602;9.886;2023-12-20T08:43:44;50.59;43.04;58.50;;
59284;Laerm;45056;47.602;9.886;2023-12-20T08:46:14;51.65;43.58;59.52;;
59284;Laerm;45056;47.602;9.886;2023-12-20T08:48:42;53.44;43.39;64.75;;
59284;Laerm;45056;47.602;9.886;2023-12-20T08:51:10;50.88;42.53;60.49;;
59284;Laerm;45056;47.602;9.886;2023-12-20T08:53:39;50.34;43.86;58.17;;
59284;Laerm;45056;47.602;9.886;2023-12-20T08:56:07;52.05;43.14;65.88;;
59284;Laerm;45056;47.602;9.886;2023-12-20T08:58:36;52.81;44.39;66.84;;
59284;Laerm;45056;47.602;9.886;2023-12-20T09:01:04;51.29;42.98;60.37;;
59284;Laerm;45056;47.602;9.886;2023-12-20T09:03:32;50.66;42.76;59.95;;
59284;Laerm;45056;47.602;9.886;2023-12-20T09:06:00;49.56;43.34;58.80;;
59284;Laerm;45056;47.602;9.886;2023-12-20T09:08:29;50.21;43.09;61.21;;
59284;Laerm;45056;47.602;9.886;2023-12-20T09:10:57;49.94;42.22;58.92;;
59284;Laerm;45056;47.602;9.886;2023-12-20T09:13:25;53.28;43.58;67.09;;
59284;Laerm;45056;47.602;9.886;2023-12-20T09:15:56;51.50;43.58;61.69;;
59284;Laerm;45056;47.602;9.886;2023-12-20T09:18:24;50.34;43.63;57.65;;
59284;Laerm;45056;47.602;9.886;2023-12-20T09:20:52;50.80;43.24;60.11;;
59284;Laerm;45056;47.602;9.886;2023-12-20T09:23:20;49.16;42.53;59.59;;
59284;Laerm;45056;47.602;9.886;2023-12-20T09:25:48;50.98;43.09;59.02;;
59284;Laerm;45056;47.602;9.886;2023-12-20T09:28:16;50.40;42.22;66.18;;
59284;Laerm;45056;47.602;9.886;2023-12-20T09:30:44;50.05;42.03;60.01;;
59284;Laerm;45056;47.602;9.886;2023-12-20T09:33:14;49.79;42.47;57.61;;
59284;Laerm;45056;47.602;9.886;2023-12-20T09:35:42;51.13;43.94;59.32;;
59284;Laerm;45056;47.602;9.886;2023-12-20T09:38:11;50.22;42.06;64.01;;
59284;Laerm;45056;47.602;9.886;2023-12-20T09:40:41;50.30;42.03;59.79;;
59284;Laerm;45056;47.602;9.886;2023-12-20T09:43:14;51.57;43.29;62.04;;
59284;Laerm;45056;47.602;9.886;2023-12-20T09:45:47;52.40;42.29;64.81;;
59284;Laerm;45056;47.602;9.886;2023-12-20T09:48:19;51.28;43.37;63.84;;
59284;Laerm;45056;47.602;9.886;2023-12-20T09:50:48;50.43;42.93;57.75;;
59284;Laerm;45056;47.602;9.886;2023-12-20T09:53:19;50.91;42.65;59.66;;
59284;Laerm;45056;47.602;9.886;2023-12-20T09:55:50;52.21;43.63;66.66;;
59284;Laerm;45056;47.602;9.886;2023-12-20T09:58:19;51.19;44.43;68.50;;
59284;Laerm;45056;47.602;9.886;2023-12-20T10:00:48;51.69;43.04;59.99;;
59284;Laerm;45056;47.602;9.886;2023-12-20T10:03:25;51.98;44.03;62.93;;
59284;Laerm;45056;47.602;9.886;2023-12-20T10:05:57;50.49;43.19;58.77;;
59284;Laerm;45056;47.602;9.886;2023-12-20T10:08:25;51.61;43.29;59.45;;
59284;Laerm;45056;47.602;9.886;2023-12-20T10:10:53;51.19;43.99;58.38;;
59284;Laerm;45056;47.602;9.886;2023-12-20T10:13:24;51.57;44.94;66.48;;
59284;Laerm;45056;47.602;9.886;2023-12-20T10:15:52;51.74;43.19;61.00;;
59284;Laerm;45056;47.602;9.886;2023-12-20T10:18:21;51.10;42.29;57.47;;
59284;Laerm;45056;47.602;9.886;2023-12-20T10:20:50;51.02;43.24;58.17;;
59284;Laerm;45056;47.602;9.886;2023-12-20T10:23:18;51.48;44.27;68.89;;
59284;Laerm;45056;47.602;9.886;2023-12-20T10:25:56;53.20;44.07;64.06;;
59284;Laerm;45056;47.602;9.886;2023-12-20T10:28:25;53.25;44.76;61.85;;
59284;Laerm;45056;47.602;9.886;2023-12-20T10:30:54;52.33;44.87;61.96;;
59284;Laerm;45056;47.602;9.886;2023-12-20T10:33:27;51.59;45.17;60.09;;
59284;Laerm;45056;47.602;9.886;2023-12-20T10:35:56;52.02;44.69;63.44;;
59284;Laerm;45056;47.602;9.886;2023-12-20T10:38:24;51.42;42.35;62.52;;
59284;Laerm;45056;47.602;9.886;2023-12-20T10:40:57;51.06;43.24;59.52;;
59284;Laerm;45056;47.602;9.886;2023-12-20T10:43:28;51.62;43.19;61.01;;
59284;Laerm;45056;47.602;9.886;2023-12-20T10:45:57;49.97;43.14;58.38;;
59284;Laerm;45056;47.602;9.886;2023-12-20T10:48:27;51.73;43.81;64.51;;
59284;Laerm;45056;47.602;9.886;2023-12-20T10:50:58;50.81;44.51;57.24;;
59284;Laerm;45056;47.602;9.886;2023-12-20T10:53:26;50.98;44.69;60.55;;
59284;Laerm;45056;47.602;9.886;2023-12-20T10:55:59;50.03;43.39;59.70;;
59284;Laerm;45056;47.602;9.886;2023-12-20T10:58:32;50.05;44.03;62.21;;
59284;Laerm;45056;47.602;9.886;2023-12-20T11:01:03;52.68;43.39;62.19;;
59284;Laerm;45056;47.602;9.886;2023-12-20T11:03:37;58.09;44.83;72.12;;
59284;Laerm;45056;47.602;9.886;2023-12-20T11:06:27;59.80;45.27;71.92;;
59284;Laerm;45056;47.602;9.886;2023-12-20T11:09:10;51.72;43.90;59.35;;
59284;Laerm;45056;47.602;9.886;2023-12-20T11:11:59;52.74;45.07;62.42;;
59284;Laerm;45056;47.602;9.886;2023-12-20T11:14:41;53.08;45.04;60.52;;
59284;Laerm;45056;47.602;9.886;2023-12-20T11:17:11;52.33;45.54;61.29;;
59284;Laerm;45056;47.602;9.886;2023-12-20T11:20:06;51.36;43.99;60.47;;
59284;Laerm;45056;47.602;9.886;2023-12-20T11:22:37;52.98;43.99;60.47;;
59284;Laerm;45056;47.602;9.886;2023-12-20T11:25:10;52.63;46.23;59.12;;
59284;Laerm;45056;47.602;9.886;2023-12-20T11:27:42;53.32;46.59;65.13;;
59284;Laerm;45056;47.602;9.886;2023-12-20T11:30:14;53.39;47.02;59.82;;
59284;Laerm;45056;47.602;9.886;2023-12-20T11:32:46;52.43;45.33;64.14;;
59284;Laerm;45056;47.602;9.886;2023-12-20T11:35:19;50.45;42.53;60.60;;
59284;Laerm;45056;47.602;9.886;2023-12-20T11:37:48;50.04;43.68;58.89;;
59284;Laerm;45056;47.602;9.886;2023-12-20T11:40:18;51.96;43.94;59.39;;
59284;Laerm;45056;47.602;9.886;2023-12-20T11:42:51;52.15;43.72;61.46;;
59284;Laerm;45056;47.602;9.886;2023-12-20T11:45:24;50.26;43.99;58.89;;
59284;Laerm;45056;47.602;9.886;2023-12-20T11:47:54;50.78;43.68;58.54;;
59284;Laerm;45056;47.602;9.886;2023-12-20T11:50:25;49.93;42.98;62.05;;
59284;Laerm;45056;47.602;9.886;2023-12-20T11:52:53;51.58;43.58;65.10;;
59284;Laerm;45056;47.602;9.886;2023-12-20T11:55:22;49.81;43.54;58.05;;
59284;Laerm;45056;47.602;9.886;2023-12-20T11:57:52;49.39;42.35;57.08;;
59284;Laerm;45056;47.602;9.886;2023-12-20T12:00:20;50.14;42.09;61.28;;
59284;Laerm;45056;47.602;9.886;2023-12-20T12:02:56;49.19;43.51;62.67;;
59284;Laerm;45056;47.602;9.886;2023-12-20T12:05:26;49.30;42.59;57.80;;
59284;Laerm;45056;47.602;9.886;2023-12-20T12:07:54;51.14;42.71;63.86;;
59284;Laerm;45056;47.602;9.886;2023-12-20T12:10:22;50.27;44.73;58.06;;
59284;Laerm;45056;47.602;9.886;2023-12-20T12:12:50;50.61;44.83;63.60;;
59284;Laerm;45056;47.602;9.886;2023-12-20T12:15:19;51.79;42.35;62.80;;
59284;Laerm;45056;47.602;9.886;2023-12-20T12:17:53;51.16;43.89;58.23;;
59284;Laerm;45056;47.602;9.886;2023-12-20T12:20:23;49.13;43.54;56.86;;
59284;Laerm;45056;47.602;9.886;2023-12-20T12:22:59;50.06;42.16;66.02;;
59284;Laerm;45056;47.602;9.886;2023-12-20T12:25:30;48.93;42.41;57.59;;
59284;Laerm;45056;47.602;9.886;2023-12-20T12:27:59;49.19;42.35;58.52;;
59284;Laerm;45056;47.602;9.886;2023-12-20T12:30:27;50.85;42.88;61.71;;
59284;Laerm;45056;47.602;9.886;2023-12-20T12:32:56;48.87;41.14;60.28;;
59284;Laerm;45056;47.602;9.886;2023-12-20T12:35:25;49.01;41.75;56.31;;
59284;Laerm;45056;47.602;9.886;2023-12-20T12:37:53;50.12;42.41;66.16;;
59284;Laerm;45056;47.602;9.886;2023-12-20T12:40:23;48.87;42.03;57.33;;
59284;Laerm;45056;47.602;9.886;2023-12-20T12:42:51;49.29;42.09;60.70;;
59284;Laerm;45056;47.602;9.886;2023-12-20T12:45:19;48.78;42.16;58.15;;
59284;Laerm;45056;47.602;9.886;2023-12-20T12:47:47;49.84;42.22;63.04;;
59284;Laerm;45056;47.602;9.886;2023-12-20T12:50:15;49.05;41.82;58.66;;
59284;Laerm;45056;47.602;9.886;2023-12-20T12:52:44;48.86;42.47;59.38;;
59284;Laerm;45056;47.602;9.886;2023-12-20T12:55:12;50.21;41.30;60.12;;
59284;Laerm;45056;47.602;9.886;2023-12-20T12:57:41;48.89;42.71;57.97;;
59284;Laerm;45056;47.602;9.886;2023-12-20T13:00:11;50.25;43.24;58.37;;
59284;Laerm;45056;47.602;9.886;2023-12-20T13:02:40;47.67;42.41;54.14;;
59284;Laerm;45056;47.602;9.886;2023-12-20T13:05:09;52.12;42.22;68.60;;
59284;Laerm;45056;47.602;9.886;2023-12-20T13:07:37;50.08;42.53;61.74;;
59284;Laerm;45056;47.602;9.886;2023-12-20T13:10:07;48.99;42.22;62.96;;
59284;Laerm;45056;47.602;9.886;2023-12-20T13:12:35;48.70;41.96;58.03;;
59284;Laerm;45056;47.602;9.886;2023-12-20T13:15:05;50.04;42.98;61.81;;
59284;Laerm;45056;47.602;9.886;2023-12-20T13:17:33;47.85;42.19;56.23;;
59284;Laerm;45056;47.602;9.886;2023-12-20T13:20:01;49.91;42.09;58.15;;
59284;Laerm;45056;47.602;9.886;2023-12-20T13:22:31;50.40;42.76;58.20;;
59284;Laerm;45056;47.602;9.886;2023-12-20T13:24:59;51.30;43.09;64.73;;
59284;Laerm;45056;47.602;9.886;2023-12-20T13:27:29;48.59;42.22;56.94;;
59284;Laerm;45056;47.602;9.886;2023-12-20T13:29:58;48.29;42.76;56.15;;
59284;Laerm;45056;47.602;9.886;2023-12-20T13:32:27;48.53;41.46;56.92;;
59284;Laerm;45056;47.602;9.886;2023-12-20T13:34:56;48.47;42.76;56.39;;
59284;Laerm;45056;47.602;9.886;2023-12-20T13:37:24;48.22;40.71;57.74;;
59284;Laerm;45056;47.602;9.886;2023-12-20T13:39:52;48.69;41.14;56.36;;
59284;Laerm;45056;47.602;9.886;2023-12-20T13:42:20;48.77;42.16;57.00;;
59284;Laerm;45056;47.602;9.886;2023-12-20T13:44:48;47.96;41.53;56.41;;
59284;Laerm;45056;47.602;9.886;2023-12-20T13:47:16;49.86;42.59;59.40;;
59284;Laerm;45056;47.602;9.886;2023-12-20T13:49:45;50.30;41.46;66.70;;
59284;Laerm;45056;47.602;9.886;2023-12-20T13:52:13;48.29;42.71;58.22;;
59284;Laerm;45056;47.602;9.886;2023-12-20T13:54:43;47.57;42.35;54.90;;
59284;Laerm;45056;47.602;9.886;2023-12-20T13:57:11;50.15;43.14;61.83;;